Midvale, Utah
Current Conditions -  °F | °C
As of 8:53 AM on Monday 22 Dec 2014 (Local Time) from KSLC Reporting Station
Light Rain Light Rain  
Wind Chill: 32°   Ceiling: 2300
Heat Index: 38°   Visibility: 9mi
Dew Point: 36°   Wind: 8mph
Humidity: 93%   Direction: 100°E
Pressure: 30"   Gusts: NA
Location:  40.61°N, 111.9°W
Report Text: KSLC 221553Z 10007KT 9SM -RA BKN023 OVC030 03/02 A3000 RMK AO2 SLP152 P0004 T00330022
Loading
Personal Weather Stations






























Interactive Weather Map New forecast layout! Learn more

10-Day Weather Forecast

Advertisements
Track Severe Weather on mobile